Terminal Aerodrome Forecast
Issued by NWS

Current Version | Previous Version | Text Only | Print | Product List | Glossary On
Versions: 1 2 3 4 5 6 7 8 9 10 11 12 13 14
000
FTUS42 TJSJ 172300 RRA
TAFNCM
TAF
TNCM 172343Z 1800/1824 04010KT P6SM FEW019
     FM181300 07010KT P6SM FEW018
     FM182300 08008KT P6SM FEW025=

USA.gov is the U.S. government's official web portal to all federal, state and local government web resources and services.